createdAt,value
2023-01-23T00:00:17.028Z,45.70
2023-01-23T00:04:00.734Z,43.93
2023-01-23T00:07:46.506Z,43.33
2023-01-23T00:11:31.957Z,40.83
2023-01-23T00:15:14.638Z,41.63
2023-01-23T00:18:57.639Z,41.17
2023-01-23T00:22:40.589Z,41.43
2023-01-23T00:26:25.317Z,37.57
2023-01-23T00:30:10.966Z,39.47
2023-01-23T00:33:55.527Z,37.80
2023-01-23T00:37:38.233Z,38.07
2023-01-23T00:41:20.897Z,40.23
2023-01-23T00:45:03.640Z,39.27
2023-01-23T00:48:47.875Z,43.60
2023-01-23T00:52:30.694Z,37.27
2023-01-23T00:56:13.377Z,37.90
2023-01-23T00:59:56.097Z,41.23
2023-01-23T01:03:41.805Z,39.63
2023-01-23T01:07:25.927Z,39.77
2023-01-23T01:11:09.151Z,42.27
2023-01-23T01:14:51.789Z,35.97
2023-01-23T01:18:34.543Z,38.77
2023-01-23T01:22:17.211Z,42.60
2023-01-23T01:26:03.885Z,34.83
2023-01-23T01:29:48.627Z,40.53
2023-01-23T01:33:31.344Z,40.00
2023-01-23T01:37:14.039Z,36.80
2023-01-23T01:40:57.278Z,34.77
2023-01-23T01:44:55.210Z,37.10
2023-01-23T01:48:41.267Z,37.63
2023-01-23T01:52:24.679Z,40.13
2023-01-23T01:56:09.012Z,38.17
2023-01-23T01:59:55.761Z,39.83
2023-01-23T02:03:38.832Z,37.63
2023-01-23T02:07:25.431Z,37.17
2023-01-23T02:11:08.748Z,36.93
2023-01-23T02:14:52.796Z,40.13
2023-01-23T02:18:37.556Z,36.20
2023-01-23T02:22:29.275Z,41.30
2023-01-23T02:26:15.333Z,40.43
2023-01-23T02:29:58.501Z,41.97
2023-01-23T02:33:47.578Z,41.57
2023-01-23T02:37:33.862Z,40.70
2023-01-23T02:41:19.652Z,36.20
2023-01-23T02:45:03.476Z,40.80
2023-01-23T02:48:47.512Z,36.67
2023-01-23T02:52:31.918Z,42.77
2023-01-23T02:56:15.441Z,44.77
2023-01-23T03:00:20.330Z,38.40
2023-01-23T03:04:04.792Z,41.87
2023-01-23T03:07:47.602Z,39.30
2023-01-23T03:11:30.311Z,39.50
2023-01-23T03:15:14.363Z,37.57
2023-01-23T03:19:01.429Z,38.53
2023-01-23T03:22:44.739Z,39.60
2023-01-23T03:26:27.554Z,40.80
2023-01-23T03:30:16.161Z,41.23
2023-01-23T03:34:00.203Z,39.00
2023-01-23T03:37:43.220Z,36.03
2023-01-23T03:41:24.988Z,31.60
2023-01-23T03:45:11.611Z,33.23
2023-01-23T03:48:54.340Z,31.77
2023-01-23T03:52:39.023Z,32.53
2023-01-23T03:56:21.702Z,30.83
2023-01-23T04:00:05.675Z,29.93
2023-01-23T04:03:48.534Z,31.30
2023-01-23T04:07:31.273Z,29.47
2023-01-23T04:11:15.388Z,32.03
2023-01-23T04:14:58.325Z,34.27
2023-01-23T04:18:43.917Z,30.77
2023-01-23T04:22:26.696Z,30.77
2023-01-23T04:26:12.289Z,29.87
2023-01-23T04:29:59.241Z,30.47
2023-01-23T04:33:41.929Z,33.33
2023-01-23T04:37:24.580Z,29.50
2023-01-23T04:41:07.236Z,27.17
2023-01-23T04:44:49.972Z,28.67
2023-01-23T04:48:33.974Z,27.17
2023-01-23T04:52:16.709Z,28.33
2023-01-23T04:55:59.516Z,28.57
2023-01-23T04:59:42.237Z,29.03
2023-01-23T05:03:24.927Z,28.37
2023-01-23T05:07:11.963Z,30.73
2023-01-23T05:10:54.995Z,31.70
2023-01-23T05:14:39.917Z,28.77
2023-01-23T05:18:22.635Z,33.33
2023-01-23T05:22:08.168Z,30.30
2023-01-23T05:25:52.269Z,30.83
2023-01-23T05:29:34.953Z,28.97
2023-01-23T05:33:17.642Z,31.03
2023-01-23T05:37:00.340Z,30.97
2023-01-23T05:40:43.001Z,31.90
2023-01-23T05:44:27.023Z,30.13
2023-01-23T05:48:09.931Z,28.67
2023-01-23T05:51:52.558Z,32.33
2023-01-23T05:55:35.344Z,31.43
2023-01-23T05:59:18.043Z,33.77
2023-01-23T06:03:02.076Z,30.37
2023-01-23T06:06:45.002Z,32.33
2023-01-23T06:10:27.711Z,34.23
2023-01-23T06:14:10.679Z,29.67
2023-01-23T06:17:53.389Z,31.30
2023-01-23T06:21:37.509Z,31.37
2023-01-23T06:25:21.947Z,32.03
2023-01-23T06:29:04.694Z,35.93
2023-01-23T06:32:47.587Z,36.20
2023-01-23T06:36:30.454Z,36.40
2023-01-23T06:40:15.870Z,35.53
2023-01-23T06:43:58.761Z,36.73
2023-01-23T06:47:41.642Z,38.40
2023-01-23T06:51:24.665Z,40.73
2023-01-23T06:55:08.043Z,45.57
2023-01-23T06:58:52.294Z,48.57
2023-01-23T07:02:34.970Z,54.00
2023-01-23T07:06:18.066Z,54.27
2023-01-23T07:10:01.634Z,50.73
2023-01-23T07:13:47.985Z,53.83
2023-01-23T07:17:32.415Z,56.00
2023-01-23T07:21:15.349Z,55.20
2023-01-23T07:24:59.239Z,53.83
2023-01-23T07:28:43.890Z,54.53
2023-01-23T07:32:27.043Z,51.03
2023-01-23T07:36:15.587Z,51.60
2023-01-23T07:40:01.238Z,49.50
2023-01-23T07:43:44.044Z,50.87
2023-01-23T07:47:26.712Z,51.63
2023-01-23T07:51:11.354Z,52.00
2023-01-23T07:54:54.048Z,56.37
2023-01-23T07:58:39.775Z,56.27
2023-01-23T08:02:22.465Z,46.73
2023-01-23T08:06:05.492Z,46.37
2023-01-23T08:09:49.532Z,48.67
2023-01-23T08:13:32.181Z,52.73
2023-01-23T08:17:15.021Z,47.23
2023-01-23T08:20:59.571Z,46.30
2023-01-23T08:24:42.427Z,47.47
2023-01-23T08:28:26.895Z,41.73
2023-01-23T08:32:09.663Z,42.97
2023-01-23T08:35:53.459Z,45.50
2023-01-23T08:39:36.895Z,36.23
2023-01-23T08:43:20.585Z,41.87
2023-01-23T08:47:04.678Z,38.00
2023-01-23T08:50:47.372Z,40.53
2023-01-23T08:54:30.292Z,36.63
2023-01-23T08:58:13.604Z,39.13
2023-01-23T09:01:56.375Z,38.23
2023-01-23T09:05:40.467Z,35.93
2023-01-23T09:09:23.155Z,34.73
2023-01-23T09:13:06.083Z,34.63
2023-01-23T09:16:48.873Z,37.53
2023-01-23T09:20:31.746Z,33.07
2023-01-23T09:24:15.804Z,35.30
2023-01-23T09:27:58.482Z,33.97
2023-01-23T09:31:41.192Z,38.03
2023-01-23T09:35:24.353Z,35.83
2023-01-23T09:39:07.047Z,35.80
2023-01-23T09:42:51.474Z,34.40
2023-01-23T09:46:36.944Z,39.93
2023-01-23T09:50:26.570Z,39.23
2023-01-23T09:54:17.462Z,38.27
2023-01-23T09:58:03.449Z,40.10
2023-01-23T10:01:46.129Z,39.60
2023-01-23T10:05:32.867Z,38.80
2023-01-23T10:09:27.568Z,34.93
2023-01-23T10:13:16.641Z,37.87
2023-01-23T10:17:08.409Z,36.97
2023-01-23T10:21:07.352Z,37.07
2023-01-23T10:24:51.841Z,37.50
2023-01-23T10:28:38.747Z,36.80
2023-01-23T10:32:25.981Z,34.77
2023-01-23T10:36:23.568Z,37.17
2023-01-23T10:40:11.731Z,38.93
2023-01-23T10:43:56.991Z,38.90
2023-01-23T10:47:54.541Z,36.70
2023-01-23T10:51:48.861Z,40.17
2023-01-23T10:55:32.363Z,39.20
2023-01-23T10:59:23.755Z,37.70
2023-01-23T11:03:29.284Z,44.60
2023-01-23T11:07:16.237Z,40.20
2023-01-23T11:11:22.612Z,41.07
2023-01-23T11:15:23.845Z,44.87
2023-01-23T11:19:17.337Z,45.10
2023-01-23T11:23:06.091Z,41.27
2023-01-23T11:26:49.059Z,39.10
2023-01-23T11:30:37.492Z,42.43
2023-01-23T11:34:23.665Z,43.03
2023-01-23T11:38:07.287Z,37.23
2023-01-23T11:41:52.910Z,39.33
2023-01-23T11:45:44.621Z,36.17
2023-01-23T11:49:36.654Z,37.90
2023-01-23T11:53:30.682Z,37.63
2023-01-23T11:57:24.622Z,38.87
2023-01-23T12:01:13.030Z,36.20
2023-01-23T12:05:05.860Z,41.43
2023-01-23T12:08:55.602Z,38.93
2023-01-23T12:12:52.105Z,42.20
2023-01-23T12:16:48.518Z,39.37
2023-01-23T12:20:37.164Z,37.17
2023-01-23T12:24:33.510Z,35.93
2023-01-23T12:28:26.186Z,37.27
2023-01-23T12:32:21.915Z,38.43
2023-01-23T12:36:18.206Z,36.40
2023-01-23T12:40:11.499Z,36.77
2023-01-23T12:43:58.496Z,36.07
2023-01-23T12:47:46.167Z,38.27
2023-01-23T12:51:35.115Z,33.03
2023-01-23T12:55:21.670Z,34.57
2023-01-23T12:59:10.842Z,34.77
2023-01-23T13:02:59.174Z,40.57
2023-01-23T13:07:04.402Z,36.17
2023-01-23T13:11:19.708Z,36.53
2023-01-23T13:15:38.873Z,34.17
2023-01-23T13:19:43.239Z,33.27
2023-01-23T13:23:28.478Z,36.77
2023-01-23T13:27:36.735Z,34.23
2023-01-23T13:31:27.678Z,36.27
2023-01-23T13:35:44.656Z,39.10
2023-01-23T13:39:30.098Z,35.67
2023-01-23T13:43:42.692Z,32.77
2023-01-23T14:20:19.909Z,29.27
2023-01-23T14:24:03.953Z,33.53
2023-01-23T14:27:53.836Z,31.53
2023-01-23T14:31:44.118Z,31.37
2023-01-23T14:35:28.594Z,31.50
2023-01-23T14:39:17.351Z,35.90
2023-01-23T14:43:05.019Z,30.10
2023-01-23T14:46:48.269Z,31.53
2023-01-23T14:50:31.267Z,29.17
2023-01-23T14:54:23.001Z,29.60
2023-01-23T14:58:07.885Z,28.60
2023-01-23T15:02:01.964Z,31.43
2023-01-23T15:05:59.359Z,33.90
2023-01-23T15:09:46.510Z,28.47
2023-01-23T15:13:36.632Z,32.30
2023-01-23T15:17:20.715Z,29.03
2023-01-23T15:21:04.972Z,32.07
2023-01-23T15:24:48.030Z,31.90
2023-01-23T15:28:33.503Z,29.07
2023-01-23T15:32:18.365Z,32.17
2023-01-23T15:36:06.245Z,35.43
2023-01-23T15:39:54.653Z,35.33
2023-01-23T15:43:38.714Z,36.47
2023-01-23T15:47:21.414Z,31.93
2023-01-23T15:51:04.255Z,42.43
2023-01-23T15:54:47.132Z,34.00
2023-01-23T15:58:29.878Z,37.80
2023-01-23T16:02:29.494Z,35.73
2023-01-23T16:06:16.819Z,39.63
2023-01-23T16:09:59.564Z,37.63
2023-01-23T16:13:42.272Z,38.70
2023-01-23T16:17:26.380Z,39.90
2023-01-23T16:21:12.703Z,37.30
2023-01-23T16:24:55.358Z,41.40
2023-01-23T16:28:38.024Z,43.63
2023-01-23T16:32:20.942Z,43.90
2023-01-23T16:36:06.774Z,46.37
2023-01-23T16:39:49.505Z,46.77
2023-01-23T16:43:32.247Z,44.20
2023-01-23T16:47:14.967Z,49.30
2023-01-23T16:51:01.516Z,45.67
2023-01-23T16:54:45.668Z,46.83
2023-01-23T16:58:30.003Z,44.87
2023-01-23T17:02:18.274Z,45.77
2023-01-23T17:06:01.064Z,46.17
2023-01-23T17:09:45.321Z,46.37
2023-01-23T17:13:28.329Z,43.20
2023-01-23T17:17:13.224Z,45.40
2023-01-23T17:20:57.966Z,47.07
2023-01-23T17:24:40.635Z,42.73
2023-01-23T17:28:24.680Z,42.97
2023-01-23T17:32:07.439Z,46.77
2023-01-23T17:35:50.721Z,44.27
2023-01-23T17:39:35.301Z,43.07
2023-01-23T17:43:18.816Z,46.07
2023-01-23T17:47:02.817Z,40.73
2023-01-23T17:50:46.887Z,38.00
2023-01-23T17:54:29.804Z,38.87
2023-01-23T17:58:14.478Z,41.93
2023-01-23T18:01:57.272Z,39.77
2023-01-23T18:05:41.475Z,34.27
2023-01-23T18:09:24.250Z,37.37
2023-01-23T18:13:13.949Z,38.80
2023-01-23T18:16:56.880Z,40.70
2023-01-23T18:20:41.565Z,39.30
2023-01-23T18:24:27.429Z,38.73
2023-01-23T18:28:16.939Z,38.20
2023-01-23T18:32:13.859Z,42.57
2023-01-23T18:36:07.100Z,41.43
2023-01-23T18:39:58.869Z,41.97
2023-01-23T18:43:44.143Z,47.73
2023-01-23T18:47:27.364Z,44.77
2023-01-23T18:51:21.447Z,42.67
2023-01-23T18:55:09.218Z,45.80
2023-01-23T18:59:11.099Z,43.53
2023-01-23T19:02:58.309Z,45.43
2023-01-23T19:06:44.643Z,44.50
2023-01-23T19:10:32.554Z,47.63
2023-01-23T19:14:25.163Z,45.73
2023-01-23T19:18:38.610Z,52.70
2023-01-23T19:22:27.208Z,49.20
2023-01-23T19:26:11.240Z,51.30
2023-01-23T19:29:54.162Z,48.73
2023-01-23T19:33:36.844Z,45.73
2023-01-23T19:37:19.571Z,48.37
2023-01-23T19:41:03.593Z,52.97
2023-01-23T19:44:46.473Z,49.07
2023-01-23T19:48:29.252Z,49.23
2023-01-23T19:52:13.306Z,43.73
2023-01-23T19:55:56.284Z,46.97
2023-01-23T19:59:40.277Z,54.50
2023-01-23T20:03:23.031Z,55.43
2023-01-23T20:07:05.699Z,51.43
2023-01-23T20:10:48.324Z,56.27
2023-01-23T20:14:30.963Z,54.10
2023-01-23T20:18:15.008Z,53.67
2023-01-23T20:21:58.768Z,54.07
2023-01-23T20:25:41.440Z,51.80
2023-01-23T20:29:24.666Z,50.60
2023-01-23T20:33:07.949Z,48.03
2023-01-23T20:36:54.916Z,50.67
2023-01-23T20:40:38.526Z,50.87
2023-01-23T20:44:21.211Z,51.07
2023-01-23T20:48:03.966Z,56.00
2023-01-23T20:51:48.514Z,47.43
2023-01-23T20:55:32.579Z,50.27
2023-01-23T20:59:23.396Z,53.50
2023-01-23T21:03:06.211Z,55.10
2023-01-23T21:06:49.146Z,55.67
2023-01-23T21:10:33.203Z,53.53
2023-01-23T21:14:15.904Z,51.80
2023-01-23T21:17:58.651Z,50.10
2023-01-23T21:21:41.706Z,51.13
2023-01-23T21:25:24.388Z,52.57
2023-01-23T21:29:09.942Z,49.60
2023-01-23T21:32:52.850Z,81.93
2023-01-23T21:36:35.990Z,52.50
2023-01-23T21:40:18.776Z,51.87
2023-01-23T21:44:01.470Z,48.20
2023-01-23T21:47:49.197Z,50.07
2023-01-23T21:51:32.440Z,49.87
2023-01-23T21:55:15.395Z,50.67
2023-01-23T21:58:58.797Z,52.13
2023-01-23T22:02:41.888Z,45.33
2023-01-23T22:06:26.267Z,47.80
2023-01-23T22:10:09.980Z,48.47
2023-01-23T22:13:53.675Z,50.63
2023-01-23T22:17:36.397Z,46.93
2023-01-23T22:21:19.185Z,45.00
2023-01-23T22:25:03.254Z,47.90
2023-01-23T22:28:45.994Z,44.63
2023-01-23T22:32:28.904Z,48.53
2023-01-23T22:36:13.980Z,47.73
2023-01-23T22:39:56.731Z,50.00
2023-01-23T22:43:40.843Z,49.83
2023-01-23T22:47:23.506Z,48.87
2023-01-23T22:51:07.833Z,46.50
2023-01-23T22:54:50.534Z,44.90
2023-01-23T22:58:33.253Z,42.57
2023-01-23T23:02:17.316Z,38.67
2023-01-23T23:06:00.773Z,41.37
2023-01-23T23:09:43.547Z,39.53
2023-01-23T23:13:29.476Z,38.67
2023-01-23T23:17:12.172Z,38.23
2023-01-23T23:20:59.999Z,38.53
2023-01-23T23:24:42.869Z,41.63
2023-01-23T23:28:27.861Z,41.30
2023-01-23T23:32:10.553Z,40.97
2023-01-23T23:35:53.290Z,40.00
2023-01-23T23:39:39.001Z,38.80
2023-01-23T23:43:21.639Z,40.20
2023-01-23T23:47:04.335Z,44.80
2023-01-23T23:50:47.646Z,39.77
2023-01-23T23:54:30.514Z,44.93
2023-01-23T23:58:14.869Z,42.90
